Home > Products > Valid Products > MTR

000
SAUS43 KABR 290358
MTR8D3
METAR K8D3 290356Z AUTO 30008KT 16/14 A2987 RMK AO1 SLP104 T01610139





000
SAUS43 KABR 290057
MTR8D3
METAR K8D3 290056Z AUTO 28005KT 17/16 A2982 RMK AO1 SLP091 T01720156





000
SAUS43 KABR 282357
MTR8D3
METAR K8D3 282356Z AUTO 02007KT 20/12 A2981 RMK AO1 SLP084 T02000122
10211 20200 53004





000
SAUS43 KABR 282257
MTR8D3
METAR K8D3 282256Z AUTO 03005KT 21/12 A2980 RMK AO1 SLP081 T02060122





000
SAUS43 KABR 280557
MTR8D3
METAR K8D3 280556Z AUTO 00000KT 16/14 A2978 RMK AO1 SLP073 T01610139
10200 20144 402440117 51005





000
SAUS43 KABR 280058
MTR8D3
METAR K8D3 280056Z AUTO 35014KT 19/14 A2975 RMK AO1 SLP064 T01890139





000
SAUS43 KABR 280000 COR
MTR8D3
METAR K8D3 272356Z AUTO 35007KT 20/13 A2974 RMK AO1 SLP063 T02000133
10233 20194 55003





000
SAUS43 KABR 271800 COR
MTR8D3
METAR K8D3 271756Z AUTO 13012KT 23/11 A2975 RMK AO1 SLP062 T02280106
10244 20133 55005





000
SAUS43 KABR 271758 COR
MTR8D3
METAR K8D3 271756Z AUTO 13012KT 23/11 A2975 RMK AO1 SLP062 T02280106
10244 20133 55005





000
SAUS43 KABR 270657
MTR8D3
METAR K8D3 270656Z AUTO 14003KT 13/13 A2977 RMK AO1 SLP070 T01330128





000
SAUS43 KABR 270457
MTR8D3
METAR K8D3 270456Z AUTO 35012KT 16/13 A2982 RMK AO1 SLP085 P0001
T01610133





000
SAUS43 KABR 270358
MTR8D3
METAR K8D3 270356Z AUTO 36006KT 18/12 A2980 RMK AO1 SLP077 T01780117





000
SAUS43 KABR 270157
MTR8D3
METAR K8D3 270156Z AUTO 18005KT 22/10 A2976 RMK AO1 SLP065 T02170100





000
SAUS43 KABR 270057
MTR8D3
METAR K8D3 270056Z AUTO 21007KT 24/09 A2980 RMK AO1 SLP077 T02390094





000
SAUS43 KABR 262157
MTR8D3
METAR K8D3 262156Z AUTO 30009G19KT 25/09 A2977 RMK AO1 SLP068
T02500089





000
SAUS43 KABR 261757
MTR8D3
METAR K8D3 261756Z AUTO 30020G28KT 24/07 A2980 RMK AO1 PK WND
33031/1733 SLP077 T02440072 10244 20139 58002





000
SAUS43 KABR 261257
MTR8D3
METAR K8D3 261256Z AUTO 32009KT 16/11 A2979 RMK AO1 SLP074 T01610106





000
SAUS43 KABR 261157
MTR8D3
METAR K8D3 261156Z AUTO 29012KT 14/11 A2978 RMK AO1 SLP074 70014
T01390106 10161 20133 53012





000
SAUS43 KABR 260757
MTR8D3
METAR K8D3 260756Z AUTO 28016KT 15/12 A2970 RMK AO1 SLP046 T01500122





    US Dept of Commerce
    National Oceanic and Atmospheric Administration
    National Weather Service
    1325 East West Highway
    Silver Spring, MD 20910
    Page Author: NWS Internet Services Team
Disclaimer
Information Quality
Credits
Glossary
Privacy Policy
Freedom of Information Act (FOIA)
About Us
Career Opportunities